createdAt,value
2023-01-23T00:00:06.632Z,11.47
2023-01-23T00:02:35.644Z,11.23
2023-01-23T00:05:03.371Z,10.63
2023-01-23T00:07:33.829Z,11.10
2023-01-23T00:10:01.453Z,11.57
2023-01-23T00:12:29.115Z,10.50
2023-01-23T00:14:56.716Z,10.07
2023-01-23T00:17:27.085Z,9.97
2023-01-23T00:19:56.311Z,9.63
2023-01-23T00:22:23.930Z,9.63
2023-01-23T00:24:51.563Z,9.50
2023-01-23T00:27:19.216Z,8.80
2023-01-23T00:29:47.505Z,8.93
2023-01-23T00:32:15.121Z,8.83
2023-01-23T00:34:42.902Z,8.20
2023-01-23T00:37:11.908Z,8.53
2023-01-23T00:39:39.655Z,8.73
2023-01-23T00:42:07.634Z,8.33
2023-01-23T00:44:35.315Z,8.77
2023-01-23T00:47:02.940Z,8.13
2023-01-23T00:49:31.285Z,8.20
2023-01-23T00:51:58.929Z,8.23
2023-01-23T00:54:28.071Z,8.50
2023-01-23T00:56:55.758Z,7.93
2023-01-23T00:59:23.412Z,7.83
2023-01-23T01:01:51.098Z,7.20
2023-01-23T01:04:18.832Z,8.03
2023-01-23T01:06:46.462Z,7.43
2023-01-23T01:09:14.108Z,7.70
2023-01-23T01:11:43.110Z,6.63
2023-01-23T01:14:11.040Z,7.80
2023-01-23T01:16:40.887Z,7.47
2023-01-23T01:19:08.545Z,8.20
2023-01-23T01:21:36.837Z,7.43
2023-01-23T01:24:04.772Z,6.90
2023-01-23T01:26:32.511Z,6.93
2023-01-23T01:29:01.564Z,7.13
2023-01-23T01:31:29.361Z,7.23
2023-01-23T01:33:57.102Z,7.20
2023-01-23T01:36:25.676Z,6.67
2023-01-23T01:38:53.297Z,7.00
2023-01-23T01:41:21.005Z,6.97
2023-01-23T01:43:48.695Z,6.37
2023-01-23T01:46:22.848Z,6.83
2023-01-23T01:49:03.185Z,6.87
2023-01-23T01:51:35.031Z,7.00
2023-01-23T01:54:09.543Z,6.93
2023-01-23T01:56:43.628Z,7.17
2023-01-23T01:59:12.758Z,6.20
2023-01-23T02:01:44.281Z,6.97
2023-01-23T02:04:12.352Z,6.77
2023-01-23T02:06:40.265Z,6.40
2023-01-23T02:09:13.671Z,6.43
2023-01-23T02:11:41.386Z,5.57
2023-01-23T02:14:10.280Z,6.47
2023-01-23T02:16:42.775Z,6.17
2023-01-23T02:19:25.564Z,6.33
2023-01-23T02:22:00.529Z,6.23
2023-01-23T02:24:37.087Z,6.43
2023-01-23T02:27:06.132Z,6.00
2023-01-23T02:29:43.148Z,6.23
2023-01-23T02:32:11.116Z,6.33
2023-01-23T02:34:38.812Z,6.27
2023-01-23T02:37:08.177Z,6.60
2023-01-23T02:39:35.876Z,6.67
2023-01-23T02:42:04.761Z,6.23
2023-01-23T02:44:33.772Z,5.73
2023-01-23T02:47:04.010Z,5.73
2023-01-23T02:49:32.550Z,5.50
2023-01-23T02:52:00.209Z,5.70
2023-01-23T02:54:27.802Z,5.53
2023-01-23T02:56:57.204Z,5.90
2023-01-23T02:59:42.406Z,6.30
2023-01-23T03:02:12.247Z,6.07
2023-01-23T03:04:39.908Z,6.13
2023-01-23T03:07:07.591Z,6.10
2023-01-23T03:09:35.245Z,6.10
2023-01-23T03:12:02.941Z,5.97
2023-01-23T03:14:32.332Z,6.37
2023-01-23T03:17:00.178Z,5.63
2023-01-23T03:19:29.298Z,6.03
2023-01-23T03:21:57.049Z,5.60
2023-01-23T03:24:24.718Z,5.83
2023-01-23T03:26:52.995Z,5.37
2023-01-23T03:29:40.467Z,5.50
2023-01-23T03:32:08.977Z,5.27
2023-01-23T03:34:38.288Z,5.40
2023-01-23T03:37:07.921Z,5.70
2023-01-23T03:39:53.513Z,5.60
2023-01-23T03:42:21.816Z,5.50
2023-01-23T03:44:49.472Z,6.40
2023-01-23T03:47:17.141Z,5.63
2023-01-23T03:49:46.123Z,5.27
2023-01-23T03:52:13.787Z,5.37
2023-01-23T03:54:42.259Z,5.60
2023-01-23T03:57:10.167Z,4.90
2023-01-23T03:59:38.040Z,5.37
2023-01-23T04:02:05.898Z,5.03
2023-01-23T04:04:33.979Z,5.57
2023-01-23T04:07:03.934Z,5.40
2023-01-23T04:09:31.660Z,5.50
2023-01-23T04:12:00.413Z,5.03
2023-01-23T04:14:30.533Z,5.17
2023-01-23T04:16:59.248Z,5.30
2023-01-23T04:19:26.925Z,5.10
2023-01-23T04:21:54.556Z,5.20
2023-01-23T04:24:23.799Z,5.40
2023-01-23T04:26:51.426Z,5.13
2023-01-23T04:29:19.116Z,5.00
2023-01-23T04:31:46.969Z,4.80
2023-01-23T04:34:14.667Z,5.30
2023-01-23T04:36:42.324Z,5.00
2023-01-23T04:39:09.957Z,5.00
2023-01-23T04:41:38.913Z,5.10
2023-01-23T04:47:00.168Z,4.80
2023-01-23T04:49:28.289Z,5.33
2023-01-23T04:51:56.139Z,4.93
2023-01-23T04:54:23.808Z,5.50
2023-01-23T04:56:51.485Z,4.63
2023-01-23T04:59:19.140Z,5.03
2023-01-23T05:01:46.765Z,4.93
2023-01-23T05:04:15.791Z,4.70
2023-01-23T05:06:43.447Z,4.73
2023-01-23T05:09:11.457Z,5.27
2023-01-23T05:11:39.123Z,5.20
2023-01-23T05:14:06.930Z,5.03
2023-01-23T05:16:34.585Z,5.30
2023-01-23T05:19:02.264Z,4.77
2023-01-23T05:21:31.242Z,4.60
2023-01-23T05:23:58.868Z,5.00
2023-01-23T05:26:26.560Z,4.90
2023-01-23T05:28:54.190Z,5.00
2023-01-23T05:31:21.942Z,4.83
2023-01-23T05:33:49.680Z,4.80
2023-01-23T05:36:18.616Z,5.07
2023-01-23T05:38:47.730Z,4.93
2023-01-23T05:41:15.418Z,4.60
2023-01-23T05:43:43.892Z,4.77
2023-01-23T05:46:11.527Z,5.00
2023-01-23T05:48:39.145Z,4.50
2023-01-23T05:51:07.097Z,5.30
2023-01-23T05:53:34.712Z,4.77
2023-01-23T05:56:08.119Z,4.30
2023-01-23T05:58:35.868Z,4.33
2023-01-23T06:01:03.647Z,4.57
2023-01-23T06:03:31.387Z,5.23
2023-01-23T06:05:59.087Z,4.30
2023-01-23T06:08:26.684Z,4.80
2023-01-23T06:10:54.376Z,4.80
2023-01-23T06:13:23.340Z,4.77
2023-01-23T06:15:51.030Z,4.80
2023-01-23T06:18:18.867Z,4.80
2023-01-23T06:20:46.605Z,4.63
2023-01-23T06:23:14.249Z,4.70
2023-01-23T06:25:43.367Z,4.40
2023-01-23T06:28:10.979Z,4.27
2023-01-23T06:30:39.993Z,4.63
2023-01-23T06:33:07.717Z,4.70
2023-01-23T06:35:35.339Z,4.70
2023-01-23T06:38:02.973Z,4.57
2023-01-23T06:40:30.628Z,4.40
2023-01-23T06:42:58.603Z,4.60
2023-01-23T06:45:26.220Z,4.70
2023-01-23T06:47:55.268Z,4.77
2023-01-23T06:50:23.211Z,4.20
2023-01-23T06:52:50.940Z,4.37
2023-01-23T06:55:18.805Z,4.80
2023-01-23T06:57:46.485Z,4.20
2023-01-23T07:00:15.705Z,4.87
2023-01-23T07:02:45.549Z,4.70
2023-01-23T07:05:14.806Z,4.67
2023-01-23T07:07:42.500Z,4.43
2023-01-23T07:10:11.873Z,4.67
2023-01-23T07:12:39.492Z,4.73
2023-01-23T07:15:08.410Z,4.57
2023-01-23T07:17:36.155Z,4.40
2023-01-23T07:20:03.820Z,4.50
2023-01-23T07:22:32.796Z,4.80
2023-01-23T07:25:00.447Z,4.57
2023-01-23T07:27:28.093Z,4.93
2023-01-23T07:29:55.717Z,4.53
2023-01-23T07:32:23.362Z,4.30
2023-01-23T07:34:53.123Z,4.37
2023-01-23T07:37:20.762Z,4.40
2023-01-23T07:39:50.708Z,4.50
2023-01-23T07:42:18.356Z,4.67
2023-01-23T07:44:46.004Z,4.60
2023-01-23T07:47:13.643Z,4.37
2023-01-23T07:49:41.315Z,4.47
2023-01-23T07:52:09.081Z,4.60
2023-01-23T07:54:36.774Z,5.13
2023-01-23T07:57:05.821Z,4.57
2023-01-23T07:59:33.658Z,5.10
2023-01-23T08:02:01.320Z,5.40
2023-01-23T08:04:28.980Z,4.73
2023-01-23T08:06:56.667Z,4.50
2023-01-23T08:09:24.374Z,4.80
2023-01-23T08:11:52.771Z,5.27
2023-01-23T08:14:21.809Z,4.70
2023-01-23T08:16:50.782Z,4.67
2023-01-23T08:19:18.835Z,4.53
2023-01-23T08:21:47.110Z,4.50
2023-01-23T08:24:15.396Z,4.50
2023-01-23T08:26:43.354Z,4.70
2023-01-23T08:29:11.703Z,4.50
2023-01-23T08:31:41.146Z,5.07
2023-01-23T08:34:08.868Z,5.10
2023-01-23T08:36:36.533Z,4.63
2023-01-23T08:39:04.611Z,4.70
2023-01-23T08:41:32.306Z,4.67
2023-01-23T08:44:01.787Z,4.50
2023-01-23T08:46:29.999Z,4.70
2023-01-23T08:48:58.974Z,4.57
2023-01-23T08:51:27.339Z,4.83
2023-01-23T08:53:55.249Z,4.60
2023-01-23T08:56:25.134Z,4.53
2023-01-23T08:58:53.215Z,4.37
2023-01-23T09:01:22.693Z,4.67
2023-01-23T09:03:50.616Z,4.80
2023-01-23T09:06:21.869Z,4.80
2023-01-23T09:08:50.008Z,4.53
2023-01-23T09:11:22.680Z,4.90
2023-01-23T09:13:53.806Z,4.37
2023-01-23T09:16:21.716Z,4.30
2023-01-23T09:18:49.365Z,4.90
2023-01-23T09:21:19.177Z,4.47
2023-01-23T09:23:47.085Z,4.33
2023-01-23T09:26:17.228Z,4.77
2023-01-23T09:28:46.506Z,4.77
2023-01-23T09:31:15.379Z,5.23
2023-01-23T09:33:43.155Z,5.00
2023-01-23T09:36:11.931Z,4.73
2023-01-23T09:38:41.634Z,4.03
2023-01-23T09:41:12.537Z,4.60
2023-01-23T09:43:45.035Z,5.00
2023-01-23T09:46:21.678Z,5.30
2023-01-23T09:48:54.551Z,4.70
2023-01-23T09:51:28.231Z,4.90
2023-01-23T09:54:03.130Z,4.70
2023-01-23T09:56:36.211Z,4.73
2023-01-23T09:59:12.963Z,4.80
2023-01-23T10:01:40.942Z,5.03
2023-01-23T10:04:12.505Z,4.67
2023-01-23T10:07:01.228Z,4.77
2023-01-23T10:09:42.755Z,5.20
2023-01-23T10:12:22.553Z,4.70
2023-01-23T10:15:05.891Z,4.67
2023-01-23T10:17:42.897Z,4.73
2023-01-23T10:20:36.925Z,4.57
2023-01-23T10:23:13.944Z,4.30
2023-01-23T10:25:43.746Z,4.60
2023-01-23T10:28:23.172Z,4.40
2023-01-23T10:30:56.142Z,4.60
2023-01-23T10:33:35.645Z,4.80
2023-01-23T10:36:08.950Z,4.50
2023-01-23T10:38:43.157Z,4.90
2023-01-23T10:41:21.196Z,4.73
2023-01-23T10:43:53.083Z,4.83
2023-01-23T10:46:22.848Z,4.83
2023-01-23T10:48:51.792Z,4.60
2023-01-23T10:51:26.370Z,4.70
2023-01-23T10:54:31.712Z,4.80
2023-01-23T10:57:03.290Z,5.03
2023-01-23T10:59:35.411Z,5.10
2023-01-23T11:02:19.393Z,4.83
2023-01-23T11:04:48.854Z,4.50
2023-01-23T11:07:18.993Z,4.90
2023-01-23T11:09:50.236Z,4.60
2023-01-23T11:12:21.784Z,5.17
2023-01-23T11:14:50.324Z,4.57
2023-01-23T11:17:21.559Z,4.93
2023-01-23T11:19:51.700Z,4.50
2023-01-23T11:22:33.877Z,5.40
2023-01-23T11:25:15.302Z,5.00
2023-01-23T11:27:58.061Z,4.90
2023-01-23T11:30:37.310Z,4.93
2023-01-23T11:33:14.193Z,4.97
2023-01-23T11:36:03.344Z,5.07
2023-01-23T11:38:42.098Z,5.10
2023-01-23T11:41:16.158Z,4.70
2023-01-23T11:43:45.157Z,4.77
2023-01-23T11:46:26.887Z,4.80
2023-01-23T11:49:09.649Z,4.83
2023-01-23T11:51:43.134Z,4.70
2023-01-23T11:54:27.886Z,4.73
2023-01-23T11:57:03.513Z,4.50
2023-01-23T11:59:54.863Z,4.60
2023-01-23T12:03:21.085Z,4.63
2023-01-23T12:06:19.589Z,5.17
2023-01-23T12:08:54.029Z,4.80
2023-01-23T12:11:24.609Z,4.70
2023-01-23T12:14:12.177Z,4.60
2023-01-23T12:16:58.526Z,4.60
2023-01-23T12:19:37.121Z,4.60
2023-01-23T12:22:11.596Z,4.70
2023-01-23T12:24:53.047Z,4.87
2023-01-23T12:27:28.143Z,4.10
2023-01-23T12:30:12.781Z,4.50
2023-01-23T12:33:01.497Z,4.87
2023-01-23T12:35:37.708Z,4.27
2023-01-23T12:38:14.255Z,4.40
2023-01-23T12:40:47.401Z,4.53
2023-01-23T12:43:20.614Z,4.50
2023-01-23T12:45:53.661Z,4.63
2023-01-23T12:48:28.490Z,5.03
2023-01-23T12:51:01.963Z,4.67
2023-01-23T12:53:36.045Z,4.63
2023-01-23T12:56:08.932Z,4.77
2023-01-23T12:58:38.560Z,4.60
2023-01-23T13:01:16.178Z,4.67
2023-01-23T13:04:06.872Z,4.63
2023-01-23T13:06:48.396Z,4.80
2023-01-23T13:09:27.392Z,4.87
2023-01-23T13:12:05.572Z,4.93
2023-01-23T13:17:42.066Z,4.50
2023-01-23T13:20:44.180Z,4.63
2023-01-23T13:23:23.492Z,4.93
2023-01-23T13:25:51.857Z,4.67
2023-01-23T13:28:44.510Z,4.37
2023-01-23T13:31:27.932Z,4.47
2023-01-23T13:34:06.524Z,5.07
2023-01-23T13:36:39.370Z,4.40
2023-01-23T13:39:27.156Z,5.17
2023-01-23T13:42:35.906Z,4.60
2023-01-23T13:45:26.920Z,4.33
2023-01-23T14:22:08.039Z,4.97
2023-01-23T14:24:44.692Z,4.97
2023-01-23T14:27:22.015Z,5.17
2023-01-23T14:29:59.214Z,4.60
2023-01-23T14:32:30.177Z,4.83
2023-01-23T14:34:57.887Z,5.00
2023-01-23T14:37:26.499Z,4.13
2023-01-23T14:39:57.930Z,4.33
2023-01-23T14:42:30.286Z,4.70
2023-01-23T14:45:01.939Z,4.73
2023-01-23T14:47:34.651Z,4.70
2023-01-23T14:50:04.419Z,4.73
2023-01-23T14:52:32.757Z,4.63
2023-01-23T14:55:07.704Z,4.80
2023-01-23T14:57:39.707Z,4.43
2023-01-23T15:00:16.131Z,4.50
2023-01-23T15:02:45.889Z,5.23
2023-01-23T15:05:22.766Z,4.53
2023-01-23T15:07:59.470Z,4.90
2023-01-23T15:10:29.096Z,4.90
2023-01-23T15:13:02.037Z,4.97
2023-01-23T15:15:30.940Z,5.07
2023-01-23T15:18:00.598Z,4.47
2023-01-23T15:20:32.015Z,4.53
2023-01-23T15:23:21.797Z,5.13
2023-01-23T15:25:57.498Z,4.60
2023-01-23T15:28:40.066Z,4.83
2023-01-23T15:31:25.119Z,5.77
2023-01-23T15:33:52.909Z,5.90
2023-01-23T15:36:27.026Z,5.80
2023-01-23T15:38:55.477Z,5.60
2023-01-23T15:41:40.769Z,5.70
2023-01-23T15:44:17.343Z,5.10
2023-01-23T15:46:45.241Z,5.00
2023-01-23T15:49:24.438Z,5.07
2023-01-23T15:51:55.455Z,5.30
2023-01-23T15:54:26.877Z,5.23
2023-01-23T15:57:06.448Z,5.00
2023-01-23T15:59:37.902Z,4.70
2023-01-23T16:02:05.859Z,5.10
2023-01-23T16:04:33.676Z,5.20
2023-01-23T16:07:06.342Z,5.07
2023-01-23T16:09:36.965Z,4.93
2023-01-23T16:12:05.603Z,4.50
2023-01-23T16:14:33.271Z,4.50
2023-01-23T16:17:15.285Z,5.00
2023-01-23T16:19:43.873Z,5.10
2023-01-23T16:22:15.302Z,5.00
2023-01-23T16:24:43.566Z,4.97
2023-01-23T16:27:17.394Z,5.00
2023-01-23T16:29:45.155Z,5.13
2023-01-23T16:32:14.219Z,4.67
2023-01-23T16:34:42.039Z,5.00
2023-01-23T16:37:15.470Z,5.57
2023-01-23T16:39:45.303Z,4.47
2023-01-23T16:42:19.589Z,5.37
2023-01-23T16:44:47.319Z,5.20
2023-01-23T16:47:16.313Z,4.30
2023-01-23T16:49:51.967Z,5.07
2023-01-23T16:52:21.617Z,4.70
2023-01-23T16:54:52.361Z,4.97
2023-01-23T16:57:22.012Z,5.10
2023-01-23T16:59:50.907Z,4.40
2023-01-23T17:02:23.420Z,5.00
2023-01-23T17:04:51.297Z,5.20
2023-01-23T17:07:20.385Z,5.13
2023-01-23T17:09:49.293Z,4.70
2023-01-23T17:12:21.585Z,4.70
2023-01-23T17:14:52.525Z,4.73
2023-01-23T17:17:27.784Z,5.10
2023-01-23T17:19:55.548Z,5.10
2023-01-23T17:22:26.567Z,4.90
2023-01-23T17:24:54.236Z,5.30
2023-01-23T17:27:21.958Z,5.60
2023-01-23T17:29:49.989Z,5.47
2023-01-23T17:32:28.071Z,5.30
2023-01-23T17:34:56.070Z,4.90
2023-01-23T17:37:24.495Z,5.27
2023-01-23T17:39:52.378Z,4.93
2023-01-23T17:42:21.871Z,5.37
2023-01-23T17:44:49.592Z,4.60
2023-01-23T17:47:17.971Z,5.00
2023-01-23T17:49:54.307Z,4.77
2023-01-23T17:52:22.475Z,5.37
2023-01-23T17:54:50.130Z,4.60
2023-01-23T17:57:17.755Z,4.47
2023-01-23T17:59:45.657Z,5.30
2023-01-23T18:02:25.999Z,4.87
2023-01-23T18:04:55.055Z,4.60
2023-01-23T18:07:22.710Z,5.10
2023-01-23T18:09:50.664Z,4.53
2023-01-23T18:12:25.935Z,4.83
2023-01-23T18:14:57.148Z,4.90
2023-01-23T18:17:34.483Z,5.00
2023-01-23T18:20:04.956Z,4.50
2023-01-23T18:22:33.117Z,4.93
2023-01-23T18:25:01.276Z,4.73
2023-01-23T18:27:30.440Z,4.87
2023-01-23T18:30:21.005Z,4.80
2023-01-23T18:33:05.548Z,5.30
2023-01-23T18:35:53.589Z,4.87
2023-01-23T18:38:29.613Z,5.17
2023-01-23T18:41:08.925Z,4.60
2023-01-23T18:43:39.902Z,4.83
2023-01-23T18:46:14.645Z,4.70
2023-01-23T18:48:44.051Z,4.73
2023-01-23T18:51:29.665Z,5.00
2023-01-23T18:54:05.930Z,4.47
2023-01-23T18:56:40.401Z,5.13
2023-01-23T18:59:20.070Z,4.90
2023-01-23T19:01:54.335Z,5.30
2023-01-23T19:04:31.501Z,4.97
2023-01-23T19:07:01.828Z,4.27
2023-01-23T19:09:34.585Z,4.70
2023-01-23T19:12:20.534Z,4.53
2023-01-23T19:15:05.960Z,5.10
2023-01-23T19:17:43.329Z,10.83
2023-01-23T19:20:32.899Z,11.50
2023-01-23T19:23:23.012Z,8.40
2023-01-23T19:25:51.084Z,8.20
2023-01-23T19:28:19.220Z,7.30
2023-01-23T19:30:47.516Z,7.20
2023-01-23T19:33:16.885Z,7.63
2023-01-23T19:35:44.756Z,7.17
2023-01-23T19:38:14.908Z,7.40
2023-01-23T19:40:42.780Z,6.50
2023-01-23T19:43:15.447Z,6.40
2023-01-23T19:45:43.370Z,6.10
2023-01-23T19:48:11.897Z,6.17
2023-01-23T19:50:40.281Z,5.83
2023-01-23T19:53:08.064Z,5.83
2023-01-23T19:55:38.360Z,6.27
2023-01-23T19:58:06.365Z,5.73
2023-01-23T20:00:36.127Z,6.27
2023-01-23T20:03:04.991Z,5.80
2023-01-23T20:05:33.065Z,6.10
2023-01-23T20:08:01.079Z,5.60
2023-01-23T20:10:29.016Z,5.90
2023-01-23T20:12:57.998Z,6.40
2023-01-23T20:15:26.896Z,5.63
2023-01-23T20:17:55.196Z,6.23
2023-01-23T20:20:23.608Z,5.57
2023-01-23T20:22:51.520Z,5.63
2023-01-23T20:25:19.545Z,5.40
2023-01-23T20:27:47.435Z,5.20
2023-01-23T20:30:18.217Z,6.10
2023-01-23T20:32:46.321Z,5.50
2023-01-23T20:35:13.976Z,5.23
2023-01-23T20:37:41.691Z,5.50
2023-01-23T20:40:11.472Z,5.17
2023-01-23T20:42:39.652Z,5.63
2023-01-23T20:45:08.389Z,5.90
2023-01-23T20:47:37.968Z,5.50
2023-01-23T20:50:06.440Z,5.07
2023-01-23T20:53:03.004Z,5.80
2023-01-23T20:55:30.655Z,5.60
2023-01-23T20:58:15.929Z,5.80
2023-01-23T21:00:44.908Z,5.80
2023-01-23T21:03:13.904Z,5.47
2023-01-23T21:05:41.577Z,5.83
2023-01-23T21:08:09.603Z,5.77
2023-01-23T21:10:37.262Z,7.20
2023-01-23T21:13:04.893Z,6.90
2023-01-23T21:15:33.407Z,5.93
2023-01-23T21:18:01.128Z,5.90
2023-01-23T21:20:30.104Z,5.80
2023-01-23T21:22:57.770Z,6.40
2023-01-23T21:25:25.427Z,6.17
2023-01-23T21:27:53.107Z,6.13
2023-01-23T21:30:21.105Z,5.77
2023-01-23T21:32:50.335Z,6.00
2023-01-23T21:35:18.105Z,6.73
2023-01-23T21:37:47.100Z,7.80
2023-01-23T21:40:15.116Z,7.63
2023-01-23T21:42:42.732Z,6.63
2023-01-23T21:45:11.187Z,6.40
2023-01-23T21:47:38.798Z,5.97
2023-01-23T21:50:07.432Z,5.73
2023-01-23T21:52:35.055Z,6.93
2023-01-23T21:55:04.124Z,6.00
2023-01-23T21:57:31.753Z,5.80
2023-01-23T22:00:17.122Z,6.00
2023-01-23T22:02:44.761Z,8.93
2023-01-23T22:05:12.433Z,6.23
2023-01-23T22:07:40.148Z,6.67
2023-01-23T22:10:10.309Z,6.13
2023-01-23T22:12:37.916Z,6.60
2023-01-23T22:15:06.411Z,5.57
2023-01-23T22:17:34.318Z,6.07
2023-01-23T22:20:01.946Z,5.97
2023-01-23T22:22:29.753Z,5.43
2023-01-23T22:24:57.372Z,5.77
2023-01-23T22:27:26.350Z,5.40
2023-01-23T22:29:53.983Z,5.37
2023-01-23T22:32:21.792Z,5.17
2023-01-23T22:34:49.524Z,6.03
2023-01-23T22:37:17.449Z,5.73
2023-01-23T22:39:45.097Z,5.47
2023-01-23T22:42:12.738Z,5.17
2023-01-23T22:44:41.763Z,5.63
2023-01-23T22:47:09.442Z,5.80
2023-01-23T22:49:37.121Z,5.47
2023-01-23T22:52:04.933Z,5.43
2023-01-23T22:54:32.566Z,5.37
2023-01-23T22:57:00.222Z,5.33
2023-01-23T22:59:28.080Z,5.40
2023-01-23T23:01:57.061Z,5.77
2023-01-23T23:04:24.720Z,5.57
2023-01-23T23:06:52.318Z,5.40
2023-01-23T23:09:19.971Z,5.43
2023-01-23T23:11:50.049Z,5.87
2023-01-23T23:14:17.680Z,5.30
2023-01-23T23:16:45.890Z,5.47
2023-01-23T23:19:14.898Z,5.27
2023-01-23T23:21:42.628Z,5.57
2023-01-23T23:24:13.976Z,5.03
2023-01-23T23:26:41.877Z,5.00
2023-01-23T23:29:09.575Z,5.17
2023-01-23T23:31:37.480Z,4.93
2023-01-23T23:34:05.178Z,6.00
2023-01-23T23:36:34.274Z,5.30
2023-01-23T23:39:02.179Z,5.50
2023-01-23T23:41:29.934Z,5.10
2023-01-23T23:43:57.547Z,5.00
2023-01-23T23:46:25.208Z,4.90
2023-01-23T23:48:52.841Z,4.90
2023-01-23T23:51:22.768Z,5.47
2023-01-23T23:53:51.856Z,5.20
2023-01-23T23:56:22.168Z,5.33
2023-01-23T23:58:50.711Z,5.17
